Time;durP1;ratioP1;P1;durP2;ratioP2;P2;SDS_P1;SDS_P2;PMS_P1;PMS_P2;Temp;Humidity;BMP_temperature;BMP_pressure;BME280_temperature;BME280_humidity;BME280_pressure;Samples;Min_cycle;Max_cycle;Signal;HPM_P1;HPM_P2
2021/12/10 00:00:14;;;;;;;47.17;20.27;;;;;;;;;;4361019;32;19939;-73
2021/12/10 00:02:45;;;;;;;44.85;20.25;;;;;;;;;;4361377;32;20409;-73
2021/12/10 00:05:11;;;;;;;52.58;22.27;;;;;;;;;;4360667;33;20043;-74
2021/12/10 00:07:36;;;;;;;;;;;;;;;;;;4361309;33;20065;-74
2021/12/10 00:10:06;;;;;;;43.25;21.05;;;;;;;;;;4360957;32;19964;-74
2021/12/10 00:12:35;;;;;;;53.08;23.17;;;;;;;;;;4361398;32;20031;-73
2021/12/10 00:15:02;;;;;;;41.80;20.42;;;;;;;;;;4361049;32;20059;-73
2021/12/10 00:17:27;;;;;;;46.92;20.50;;;;;;;;;;4347211;33;20124;-74
2021/12/10 00:19:54;;;;;;;;;;;;;;;;;;4361122;32;20044;-74
2021/12/10 00:22:25;;;;;;;40.75;19.48;;;;;;;;;;4361709;32;19957;-73
2021/12/10 00:25:12;;;;;;;50.85;21.10;;;;;;;;;;4361342;32;20073;-73
2021/12/10 00:28:01;;;;;;;49.47;25.25;;;;;;;;;;4360942;32;20486;-74
2021/12/10 00:31:16;;;;;;;;;;;;;;;;;;;;;
2021/12/10 00:34:21;;;;;;;38.78;23.90;;;;;;;;;;4299960;33;20079;-73
2021/12/10 00:37:21;;;;;;;;;;;;;;;;;;;;;
2021/12/10 00:39:57;;;;;;;50.85;24.52;;;;;;;;;;4285853;33;20497;-73
2021/12/10 00:42:42;;;;;;;;;;;;;;;;;;;;;
2021/12/10 00:45:20;;;;;;;53.95;24.80;;;;;;;;;;4297101;33;20467;-74
2021/12/10 00:47:53;;;;;;;43.40;22.92;;;;;;;;;;4316539;33;20044;-73
2021/12/10 00:50:27;;;;;;;45.60;24.33;;;;;;;;;;4343107;33;20414;-74
2021/12/10 00:52:53;;;;;;;59.38;24.45;;;;;;;;;;4345806;33;20043;-73
2021/12/10 00:55:20;;;;;;;45.70;25.17;;;;;;;;;;4345925;33;20036;-73
2021/12/10 00:57:48;;;;;;;48.15;25.88;;;;;;;;;;4346023;33;20032;-73
2021/12/10 01:00:17;;;;;;;44.38;27.35;;;;;;;;;;4360486;32;20039;-73
2021/12/10 01:06:05;;;;;;;41.10;24.50;;;;;;;;;;4361020;32;20385;-73
2021/12/10 01:11:39;;;;;;;42.78;24.60;;;;;;;;;;4360068;32;20373;-73
2021/12/10 01:27:33;;;;;;;38.75;23.25;;;;;;;;;;4242469;33;20130;-73
2021/12/10 01:30:31;;;;;;;39.92;24.25;;;;;;;;;;4227551;33;20030;-73
2021/12/10 01:39:28;;;;;;;41.60;22.05;;;;;;;;;;4256832;33;20038;-73
2021/12/10 01:48:09;;;;;;;43.35;23.52;;;;;;;;;;4270927;33;20079;-73
2021/12/10 01:53:27;;;;;;;31.00;18.42;;;;;;;;;;4319738;33;20447;-73
2021/12/10 01:56:13;;;;;;;38.78;18.67;;;;;;;;;;4342542;33;20186;-73
2021/12/10 01:59:02;;;;;;;33.53;19.90;;;;;;;;;;4348359;33;20075;-74
2021/12/10 02:01:49;;;;;;;29.48;17.05;;;;;;;;;;4354137;32;20173;-73
2021/12/10 02:07:06;;;;;;;34.22;15.57;;;;;;;;;;4256923;33;20052;-73
2021/12/10 02:12:42;;;;;;;30.42;16.05;;;;;;;;;;4358743;32;20050;-73
2021/12/10 02:18:32;;;;;;;30.05;15.50;;;;;;;;;;4375438;32;20478;-73
2021/12/10 02:21:16;;;;;;;;;;;;;;;;;;;;;
2021/12/10 02:24:11;;;;;;;32.53;14.82;;;;;;;;;;4375284;32;20038;-73
2021/12/10 02:27:01;;;;;;;28.98;14.52;;;;;;;;;;4377187;32;20070;-74
2021/12/10 02:29:45;;;;;;;25.98;14.45;;;;;;;;;;4377341;32;20051;-73
2021/12/10 02:32:39;;;;;;;31.48;15.13;;;;;;;;;;4363940;32;20405;-73
2021/12/10 02:35:05;;;;;;;25.92;14.52;;;;;;;;;;4362634;32;20098;-73
2021/12/10 02:37:31;;;;;;;22.10;12.02;;;;;;;;;;4362292;32;20373;-73
2021/12/10 02:39:56;;;;;;;;;;;;;;;;;;4375378;32;20429;-74
2021/12/10 02:42:21;;;;;;;25.02;12.88;;;;;;;;;;4363550;32;19989;-73
2021/12/10 02:44:46;;;;;;;;;;;;;;;;;;4363948;32;20170;-73
2021/12/10 02:47:33;;;;;;;32.22;12.82;;;;;;;;;;4377270;32;19978;-73
2021/12/10 02:50:02;;;;;;;24.55;11.63;;;;;;;;;;4362449;32;20085;-73
2021/12/10 02:55:51;;;;;;;;;;;;;;;;;;;;;
2021/12/10 02:58:36;;;;;;;17.87;9.70;;;;;;;;;;4332293;33;20077;-74
2021/12/10 03:01:11;;;;;;;27.83;10.75;;;;;;;;;;4367536;32;20058;-73
2021/12/10 03:03:43;;;;;;;24.10;9.77;;;;;;;;;;4377052;32;20359;-74
2021/12/10 03:06:11;;;;;;;17.80;9.30;;;;;;;;;;4377193;32;20023;-74
2021/12/10 03:08:41;;;;;;;20.12;9.20;;;;;;;;;;4377581;32;20030;-73
2021/12/10 03:11:10;;;;;;;19.30;10.43;;;;;;;;;;4377323;32;20099;-74
2021/12/10 03:13:35;;;;;;;21.33;10.30;;;;;;;;;;4377353;32;20113;-73
2021/12/10 03:16:10;;;;;;;;;;;;;;;;;;4377001;32;20437;-73
2021/12/10 03:18:35;;;;;;;22.10;8.40;;;;;;;;;;4377322;32;19942;-73
2021/12/10 03:21:13;;;;;;;;;;;;;;;;;;4377052;32;20073;-74
2021/12/10 03:23:46;;;;;;;16.58;8.40;;;;;;;;;;4377240;32;19973;-74
2021/12/10 03:26:13;;;;;;;16.65;7.85;;;;;;;;;;4377228;32;20027;-73
2021/12/10 03:29:00;;;;;;;17.50;7.78;;;;;;;;;;4376647;32;20337;-74
2021/12/10 03:31:53;;;;;;;16.75;8.13;;;;;;;;;;4376424;32;20031;-74
2021/12/10 03:37:38;;;;;;;16.85;8.30;;;;;;;;;;4304023;33;20025;-73
2021/12/10 03:43:44;;;;;;;21.48;10.18;;;;;;;;;;4330064;33;20082;-74
2021/12/10 03:53:26;;;;;;;20.10;8.50;;;;;;;;;;4258969;33;20172;-73
2021/12/10 03:56:16;;;;;;;26.83;10.32;;;;;;;;;;4257178;33;20508;-74
2021/12/10 03:59:05;;;;;;;25.12;8.48;;;;;;;;;;4242803;33;20121;-73
2021/12/10 04:01:47;;;;;;;14.87;7.45;;;;;;;;;;4247098;33;20060;-73
2021/12/10 04:04:26;;;;;;;16.23;8.30;;;;;;;;;;4267897;33;20111;-74
2021/12/10 04:06:52;;;;;;;21.05;7.55;;;;;;;;;;4286550;33;20036;-74
2021/12/10 04:09:18;;;;;;;17.70;8.13;;;;;;;;;;4292441;32;20120;-74
2021/12/10 04:11:43;;;;;;;;;;;;;;;;;;4362606;32;20081;-74
2021/12/10 04:14:08;;;;;;;17.90;7.12;;;;;;;;;;4374034;32;19969;-74
2021/12/10 04:16:34;;;;;;;;;;;;;;;;;;4376364;32;20177;-74
2021/12/10 04:19:00;;;;;;;24.85;8.02;;;;;;;;;;4376404;32;19972;-75
2021/12/10 04:21:26;;;;;;;18.05;6.45;;;;;;;;;;4374474;32;20019;-74
2021/12/10 04:23:51;;;;;;;;;;;;;;;;;;4376241;32;20065;-75
2021/12/10 04:26:21;;;;;;;23.48;8.40;;;;;;;;;;4374635;32;19958;-74
2021/12/10 04:29:14;;;;;;;18.62;7.37;;;;;;;;;;4376502;32;20027;-74
2021/12/10 04:31:40;;;;;;;15.85;6.05;;;;;;;;;;4375893;32;20030;-74
2021/12/10 04:34:05;;;;;;;;;;;;;;;;;;4375124;32;20057;-74
2021/12/10 04:36:31;;;;;;;15.35;6.37;;;;;;;;;;4376372;32;20375;-74
2021/12/10 04:39:23;;;;;;;13.52;6.87;;;;;;;;;;4375714;32;20061;-74
2021/12/10 04:42:16;;;;;;;16.15;6.18;;;;;;;;;;4373808;32;20050;-74
2021/12/10 04:45:17;;;;;;;;;;;;;;;;;;;;;
2021/12/10 04:50:46;;;;;;;10.27;5.30;;;;;;;;;;4375521;32;20117;-74
2021/12/10 04:56:00;;;;;;;15.80;4.87;;;;;;;;;;4375332;32;19957;-73
2021/12/10 04:58:28;;;;;;;20.90;6.45;;;;;;;;;;4375530;32;20069;-73
2021/12/10 05:01:03;;;;;;;13.20;5.37;;;;;;;;;;4375124;32;20104;-73
2021/12/10 05:03:29;;;;;;;11.25;5.00;;;;;;;;;;4375289;32;20053;-73
2021/12/10 05:06:02;;;;;;;;;;;;;;;;;;4375607;32;20027;-73
2021/12/10 05:09:00;;;;;;;9.85;4.70;;;;;;;;;;4375754;32;19945;-73
2021/12/10 05:11:40;;;;;;;13.95;4.50;;;;;;;;;;4375191;32;20026;-74
2021/12/10 05:14:26;;;;;;;11.88;5.82;;;;;;;;;;4375338;32;20418;-74
2021/12/10 05:16:52;;;;;;;9.57;3.93;;;;;;;;;;4375739;32;20031;-74
2021/12/10 05:19:28;;;;;;;;;;;;;;;;;;;;;
2021/12/10 05:22:04;;;;;;;10.65;3.75;;;;;;;;;;4376075;32;19953;-74
2021/12/10 05:24:59;;;;;;;12.95;4.60;;;;;;;;;;4361977;32;20054;-74
2021/12/10 05:27:39;;;;;;;9.35;3.35;;;;;;;;;;4348177;32;20043;-74
2021/12/10 05:30:07;;;;;;;11.05;3.67;;;;;;;;;;4375435;32;20097;-74
2021/12/10 05:32:32;;;;;;;15.35;4.35;;;;;;;;;;4374995;32;20030;-74
2021/12/10 05:35:06;;;;;;;;;;;;;;;;;;4375564;32;20108;-74
2021/12/10 05:37:32;;;;;;;9.35;4.35;;;;;;;;;;4375481;32;19939;-74
2021/12/10 05:39:58;;;;;;;;;;;;;;;;;;4375758;32;20085;-74
2021/12/10 05:42:27;;;;;;;7.80;3.37;;;;;;;;;;4361556;32;19968;-73
2021/12/10 05:45:04;;;;;;;12.50;3.45;;;;;;;;;;4375274;32;20068;-74
2021/12/10 05:53:22;;;;;;;14.68;4.65;;;;;;;;;;4299364;33;20048;-73
2021/12/10 05:55:51;;;;;;;;;;;;;;;;;;4362500;32;20445;-73
2021/12/10 05:58:25;;;;;;;13.52;4.68;;;;;;;;;;4375331;32;19950;-73
2021/12/10 06:03:37;;;;;;;13.98;4.95;;;;;;;;;;4370929;32;20062;-74
2021/12/10 06:06:16;;;;;;;11.12;3.70;;;;;;;;;;4377657;32;20058;-74
2021/12/10 06:11:47;;;;;;;11.23;4.90;;;;;;;;;;4374227;32;20065;-74
2021/12/10 06:14:21;;;;;;;10.63;4.00;;;;;;;;;;4378205;32;20039;-75
2021/12/10 06:16:47;;;;;;;12.23;3.62;;;;;;;;;;4378548;32;20474;-75
2021/12/10 06:19:15;;;;;;;;;;;;;;;;;;4377542;32;20027;-74
2021/12/10 06:21:56;;;;;;;8.88;3.85;;;;;;;;;;4376938;32;19999;-74
2021/12/10 06:24:31;;;;;;;;;;;;;;;;;;;;;
2021/12/10 06:26:57;;;;;;;9.50;3.65;;;;;;;;;;4360998;33;20065;-74
2021/12/10 06:29:24;;;;;;;;;;;;;;;;;;4363072;32;20027;-74
2021/12/10 06:32:20;;;;;;;13.20;4.22;;;;;;;;;;4362349;32;19939;-74
2021/12/10 06:34:56;;;;;;;12.25;4.05;;;;;;;;;;4362346;32;20039;-74
2021/12/10 06:37:22;;;;;;;11.83;5.10;;;;;;;;;;4363458;32;20058;-74
2021/12/10 06:39:47;;;;;;;;;;;;;;;;;;4366366;32;20026;-74
2021/12/10 06:42:12;;;;;;;16.35;5.50;;;;;;;;;;4377636;32;20301;-74
2021/12/10 06:44:38;;;;;;;;;;;;;;;;;;4377562;32;20113;-74
2021/12/10 06:47:05;;;;;;;17.23;5.68;;;;;;;;;;4377170;32;19934;-74
2021/12/10 06:49:31;;;;;;;18.23;4.95;;;;;;;;;;4363485;32;20027;-74
2021/12/10 06:51:57;;;;;;;14.95;5.37;;;;;;;;;;4376776;32;20035;-76
2021/12/10 06:54:31;;;;;;;;;;;;;;;;;;4377447;32;20030;-74
2021/12/10 06:56:57;;;;;;;19.17;5.12;;;;;;;;;;4377216;32;19943;-74
2021/12/10 06:59:24;;;;;;;;;;;;;;;;;;4377589;32;20353;-74
2021/12/10 07:01:49;;;;;;;;;;;;;;;;;;4377151;32;19934;-74
2021/12/10 07:04:15;;;;;;;12.80;4.75;;;;;;;;;;4376635;32;20309;-74
2021/12/10 07:06:55;;;;;;;;;;;;;;;;;;4377069;32;20027;-73
2021/12/10 07:09:21;;;;;;;17.02;4.80;;;;;;;;;;4376572;32;19950;-73
2021/12/10 07:11:50;;;;;;;14.07;5.00;;;;;;;;;;4376893;32;20061;-74
2021/12/10 07:14:16;;;;;;;10.27;4.30;;;;;;;;;;4376996;32;20027;-74
2021/12/10 07:19:31;;;;;;;14.63;5.25;;;;;;;;;;4376484;32;19965;-75
2021/12/10 07:21:56;;;;;;;13.85;4.43;;;;;;;;;;4376263;32;20031;-73
2021/12/10 07:24:21;;;;;;;;;;;;;;;;;;4362305;32;20064;-76
2021/12/10 07:26:47;;;;;;;13.52;3.72;;;;;;;;;;4375912;32;19957;-74
2021/12/10 07:29:13;;;;;;;22.30;9.93;;;;;;;;;;4376178;32;20031;-74
2021/12/10 07:31:38;;;;;;;;;;;;;;;;;;4362621;32;20076;-73
2021/12/10 07:34:06;;;;;;;10.38;3.80;;;;;;;;;;4376002;32;19930;-74
2021/12/10 07:36:37;;;;;;;15.15;4.78;;;;;;;;;;4376300;32;20026;-75
2021/12/10 07:39:11;;;;;;;11.73;4.32;;;;;;;;;;4374458;32;20039;-75
2021/12/10 07:41:42;;;;;;;12.93;3.97;;;;;;;;;;4375798;32;20039;-75
2021/12/10 07:47:21;;;;;;;22.98;6.12;;;;;;;;;;4346252;33;20071;-75
2021/12/10 07:49:53;;;;;;;15.23;4.70;;;;;;;;;;4360797;32;20074;-75
2021/12/10 07:52:24;;;;;;;15.38;5.15;;;;;;;;;;4359398;32;20061;-74
2021/12/10 07:54:49;;;;;;;10.35;4.97;;;;;;;;;;4375454;32;20089;-73
2021/12/10 07:57:15;;;;;;;;;;;;;;;;;;4375853;32;20062;-74
2021/12/10 07:59:41;;;;;;;17.00;7.30;;;;;;;;;;4375594;32;19934;-74
2021/12/10 08:02:06;;;;;;;14.98;4.68;;;;;;;;;;4361434;32;20069;-74
2021/12/10 08:04:49;;;;;;;;;;;;;;;;;;4361384;32;20413;-75
2021/12/10 08:07:15;;;;;;;9.50;4.07;;;;;;;;;;4361002;32;20017;-74
2021/12/10 08:09:49;;;;;;;;;;;;;;;;;;4361640;32;20038;-75
2021/12/10 08:12:26;;;;;;;19.52;4.65;;;;;;;;;;4362180;32;19945;-75
2021/12/10 08:14:58;;;;;;;13.18;5.07;;;;;;;;;;4375640;32;20091;-74
2021/12/10 08:17:26;;;;;;;11.02;4.10;;;;;;;;;;4375386;32;20035;-74
2021/12/10 08:19:52;;;;;;;16.15;4.25;;;;;;;;;;4375675;32;20059;-74
2021/12/10 08:22:23;;;;;;;;;;;;;;;;;;4376347;32;20084;-75
2021/12/10 08:24:48;;;;;;;13.57;4.25;;;;;;;;;;4374796;32;20060;-71
2021/12/10 08:27:13;;;;;;;;;;;;;;;;;;4376443;32;20361;-74
2021/12/10 08:29:42;;;;;;;24.75;6.70;;;;;;;;;;4361906;32;19950;-74
2021/12/10 08:32:07;;;;;;;26.25;6.40;;;;;;;;;;4375082;32;20038;-74
2021/12/10 08:37:44;;;;;;;16.27;4.20;;;;;;;;;;4375337;32;19989;-75
2021/12/10 08:40:12;;;;;;;15.88;5.50;;;;;;;;;;4361157;32;20019;-75
2021/12/10 08:42:46;;;;;;;10.40;4.20;;;;;;;;;;4360096;32;20515;-74
2021/12/10 08:45:21;;;;;;;15.95;5.68;;;;;;;;;;4361535;32;20032;-74
2021/12/10 08:47:47;;;;;;;20.30;5.07;;;;;;;;;;4374124;32;20424;-74
2021/12/10 08:50:16;;;;;;;15.35;4.35;;;;;;;;;;4375562;32;20035;-75
2021/12/10 08:52:57;;;;;;;19.70;5.93;;;;;;;;;;4374923;32;20051;-75
2021/12/10 08:55:38;;;;;;;17.58;4.85;;;;;;;;;;4374598;32;20031;-74
2021/12/10 08:58:05;;;;;;;28.27;5.75;;;;;;;;;;4375241;32;20092;-74
2021/12/10 09:00:50;;;;;;;9.55;4.30;;;;;;;;;;4374821;32;20047;-74
2021/12/10 09:03:19;;;;;;;18.00;5.60;;;;;;;;;;4373065;32;20061;-75
2021/12/10 09:05:53;;;;;;;15.73;5.22;;;;;;;;;;4375267;32;20096;-74
2021/12/10 09:08:21;;;;;;;17.40;5.68;;;;;;;;;;4361834;32;20325;-74
2021/12/10 09:13:35;;;;;;;13.73;5.43;;;;;;;;;;4366569;32;20376;-74
2021/12/10 09:16:03;;;;;;;18.30;6.10;;;;;;;;;;4375093;32;20088;-74
2021/12/10 09:18:28;;;;;;;12.37;5.12;;;;;;;;;;4374508;32;20078;-74
2021/12/10 09:20:56;;;;;;;;;;;;;;;;;;4375037;32;20077;-74
2021/12/10 09:23:23;;;;;;;14.65;5.05;;;;;;;;;;4374953;32;19934;-75
2021/12/10 09:26:13;;;;;;;15.75;5.18;;;;;;;;;;4374733;32;20093;-75
2021/12/10 09:28:48;;;;;;;14.52;5.25;;;;;;;;;;4365245;32;20066;-75
2021/12/10 09:31:32;;;;;;;15.45;4.65;;;;;;;;;;4375338;32;20039;-75
2021/12/10 09:33:58;;;;;;;13.62;5.12;;;;;;;;;;4362532;32;20077;-75
2021/12/10 09:36:23;;;;;;;;;;;;;;;;;;4362905;32;20406;-75
2021/12/10 09:38:48;;;;;;;15.27;4.90;;;;;;;;;;4361780;32;19984;-74
2021/12/10 09:41:13;;;;;;;;;;;;;;;;;;4377444;32;20555;-75
2021/12/10 09:46:28;;;;;;;15.98;5.35;;;;;;;;;;4331593;33;20074;-74
2021/12/10 09:48:54;;;;;;;23.62;5.78;;;;;;;;;;4370559;32;20027;-76
2021/12/10 09:51:25;;;;;;;;;;;;;;;;;;4377698;32;20062;-74
2021/12/10 09:56:57;;;;;;;19.73;6.32;;;;;;;;;;4377480;32;20106;-74
2021/12/10 09:59:23;;;;;;;14.02;5.90;;;;;;;;;;4377392;32;20413;-75
2021/12/10 10:01:52;;;;;;;15.18;5.25;;;;;;;;;;4377946;32;20084;-74
2021/12/10 10:04:53;;;;;;;18.25;6.43;;;;;;;;;;4362146;32;20092;-73
2021/12/10 10:07:35;;;;;;;16.95;5.87;;;;;;;;;;4370854;32;20066;-74
2021/12/10 10:10:15;;;;;;;;;;;;;;;;;;;;;
2021/12/10 10:13:01;;;;;;;17.25;7.60;;;;;;;;;;4362934;33;20039;-75
2021/12/10 10:19:08;;;;;;;16.05;6.30;;;;;;;;;;4365009;32;20106;-76
2021/12/10 10:21:56;;;;;;;17.12;7.55;;;;;;;;;;4362750;32;20096;-76
2021/12/10 10:24:31;;;;;;;19.85;7.75;;;;;;;;;;4377074;32;20039;-74
2021/12/10 10:27:27;;;;;;;18.83;7.23;;;;;;;;;;4377342;32;20039;-75
2021/12/10 10:29:58;;;;;;;15.80;6.37;;;;;;;;;;4376841;32;20160;-74
2021/12/10 10:36:01;;;;;;;26.27;7.57;;;;;;;;;;4301183;33;20119;-75
2021/12/10 10:38:33;;;;;;;19.70;7.85;;;;;;;;;;4300940;33;20032;-74
2021/12/10 10:41:04;;;;;;;19.92;7.65;;;;;;;;;;4279714;33;20072;-74
2021/12/10 10:43:40;;;;;;;17.02;7.72;;;;;;;;;;4287325;33;20081;-74
2021/12/10 10:46:11;;;;;;;25.95;7.87;;;;;;;;;;4291630;33;20044;-74
2021/12/10 10:48:50;;;;;;;21.37;8.00;;;;;;;;;;4301143;33;20066;-74
2021/12/10 10:51:36;;;;;;;20.90;7.37;;;;;;;;;;4301598;33;20037;-74
2021/12/10 10:54:05;;;;;;;20.58;8.10;;;;;;;;;;4301366;33;20025;-74
2021/12/10 10:56:54;;;;;;;25.20;8.25;;;;;;;;;;4301170;33;20037;-75
2021/12/10 10:59:28;;;;;;;19.40;8.80;;;;;;;;;;4354566;32;20031;-74
2021/12/10 11:02:29;;;;;;;22.48;8.90;;;;;;;;;;4392264;32;20030;-75
2021/12/10 11:05:24;;;;;;;;;;;;;;;;;;;;;
2021/12/10 11:17:19;;;;;;;26.67;9.70;;;;;;;;;;4253258;33;20130;-76
2021/12/10 11:20:16;;;;;;;18.02;10.57;;;;;;;;;;4291574;33;20075;-74
2021/12/10 11:23:00;;;;;;;19.87;10.02;;;;;;;;;;4358822;32;20039;-74
2021/12/10 11:25:34;;;;;;;26.65;10.05;;;;;;;;;;4375954;32;20047;-74
2021/12/10 11:28:22;;;;;;;24.08;10.02;;;;;;;;;;4376345;32;20053;-74
2021/12/10 11:34:10;;;;;;;18.17;9.35;;;;;;;;;;4376343;32;20061;-74
2021/12/10 11:39:42;;;;;;;16.42;9.05;;;;;;;;;;4363600;32;20073;-76
2021/12/10 11:42:26;;;;;;;21.92;9.20;;;;;;;;;;4376392;32;20043;-75
2021/12/10 11:45:29;;;;;;;20.02;9.60;;;;;;;;;;4374327;32;20065;-74
2021/12/10 11:48:13;;;;;;;16.35;9.20;;;;;;;;;;4370266;32;20471;-75
2021/12/10 11:51:17;;;;;;;19.15;9.10;;;;;;;;;;4381453;32;20171;-75
2021/12/10 11:54:03;;;;;;;18.30;9.55;;;;;;;;;;4350036;32;20062;-74
2021/12/10 11:56:54;;;;;;;23.38;9.48;;;;;;;;;;4374007;32;20093;-75
2021/12/10 12:05:40;;;;;;;20.90;9.15;;;;;;;;;;4314240;33;20098;-75
2021/12/10 12:11:34;;;;;;;24.25;10.68;;;;;;;;;;4270277;33;20383;-74
2021/12/10 12:14:47;;;;;;;;;;;;;;;;;;;;;
2021/12/10 12:32:26;;;;;;;22.13;9.65;;;;;;;;;;4271124;33;20454;-75
2021/12/10 12:40:48;;;;;;;20.77;10.05;;;;;;;;;;4285504;33;20092;-74
2021/12/10 12:46:55;;;;;;;;;;;;;;;;;;4277692;33;20112;-74
2021/12/10 12:49:05;;;;;;;21.10;10.07;;;;;;;;;;4275173;33;19986;-74
2021/12/10 12:54:53;;;;;;;21.45;8.90;;;;;;;;;;4329040;33;20087;-74
2021/12/10 12:58:03;;;;;;;12.20;7.45;;;;;;;;;;4329510;33;20059;-75
2021/12/10 13:00:35;;;;;;;;;;;;;;;;;;;;;
2021/12/10 13:03:09;;;;;;;17.47;7.10;;;;;;;;;;4360185;32;20074;-74
2021/12/10 13:05:49;;;;;;;17.77;8.50;;;;;;;;;;4360681;32;20031;-74
2021/12/10 13:11:20;;;;;;;22.95;9.18;;;;;;;;;;4360423;32;20091;-74
2021/12/10 13:13:48;;;;;;;17.70;8.77;;;;;;;;;;4372493;32;20065;-75
2021/12/10 13:16:14;;;;;;;19.85;8.73;;;;;;;;;;4373875;32;20108;-75
2021/12/10 13:18:41;;;;;;;21.85;9.27;;;;;;;;;;4372359;32;20099;-75
2021/12/10 13:21:11;;;;;;;13.23;8.27;;;;;;;;;;4370515;32;20144;-74
2021/12/10 13:23:36;;;;;;;19.12;9.68;;;;;;;;;;4374770;32;20047;-74
2021/12/10 13:26:01;;;;;;;;;;;;;;;;;;4375268;32;20384;-74
2021/12/10 13:28:27;;;;;;;22.70;9.35;;;;;;;;;;4375698;32;19934;-74
2021/12/10 13:30:52;;;;;;;;;;;;;;;;;;4375637;32;20085;-74
2021/12/10 13:33:23;;;;;;;22.27;9.07;;;;;;;;;;4374996;32;19981;-74
2021/12/10 13:36:01;;;;;;;20.67;10.63;;;;;;;;;;4374820;32;20058;-74
2021/12/10 13:41:53;;;;;;;19.65;9.55;;;;;;;;;;4375044;32;20073;-74
2021/12/10 13:46:59;;;;;;;23.20;10.38;;;;;;;;;;4375020;32;20093;-75
2021/12/10 13:49:43;;;;;;;19.40;10.50;;;;;;;;;;4373862;32;20031;-74
2021/12/10 13:52:08;;;;;;;25.85;11.00;;;;;;;;;;4374616;32;20062;-75
2021/12/10 13:54:42;;;;;;;;;;;;;;;;;;4375385;32;20112;-75
2021/12/10 13:57:38;;;;;;;21.55;10.52;;;;;;;;;;4374901;32;19942;-75
2021/12/10 14:00:18;;;;;;;15.85;9.77;;;;;;;;;;4372979;32;20044;-74
2021/12/10 14:02:45;;;;;;;18.35;10.20;;;;;;;;;;4373479;32;20090;-75
2021/12/10 14:08:36;;;;;;;25.45;10.00;;;;;;;;;;4374833;32;20037;-75
2021/12/10 14:11:11;;;;;;;;;;;;;;;;;;4363866;32;20023;-74
2021/12/10 14:13:36;;;;;;;15.18;10.18;;;;;;;;;;4375149;32;19938;-74
2021/12/10 14:19:03;;;;;;;18.30;10.15;;;;;;;;;;4358312;32;19935;-74
2021/12/10 14:24:55;;;;;;;23.85;11.32;;;;;;;;;;4360817;32;20097;-75
2021/12/10 14:27:49;;;;;;;23.12;11.25;;;;;;;;;;4360829;32;20019;-75
2021/12/10 14:30:15;;;;;;;17.75;11.40;;;;;;;;;;4360668;32;20039;-75
2021/12/10 14:32:49;;;;;;;;;;;;;;;;;;4359703;32;20062;-74
2021/12/10 14:36:00;;;;;;;23.95;12.48;;;;;;;;;;4360842;32;19946;-76
2021/12/10 14:38:40;;;;;;;22.08;12.40;;;;;;;;;;4332783;33;20098;-76
2021/12/10 14:41:17;;;;;;;22.58;12.88;;;;;;;;;;4363224;32;20019;-75
2021/12/10 14:43:48;;;;;;;29.12;13.10;;;;;;;;;;4378916;32;20027;-75
2021/12/10 14:46:17;;;;;;;26.15;13.10;;;;;;;;;;4392985;32;20014;-75
2021/12/10 14:49:32;;;;;;;24.25;12.40;;;;;;;;;;4392542;32;20026;-75
2021/12/10 14:55:27;;;;;;;23.27;14.10;;;;;;;;;;4283885;33;20071;-75
2021/12/10 14:58:28;;;;;;;28.38;14.90;;;;;;;;;;4286349;33;20463;-74
2021/12/10 15:01:15;;;;;;;23.58;12.15;;;;;;;;;;4352687;32;20475;-73
2021/12/10 15:03:52;;;;;;;;;;;;;;;;;;;;;
2021/12/10 15:06:18;;;;;;;28.45;13.13;;;;;;;;;;4385187;32;20039;-74
2021/12/10 15:08:49;;;;;;;;;;;;;;;;;;4385466;32;20030;-74
2021/12/10 15:11:26;;;;;;;18.25;11.85;;;;;;;;;;4391652;32;19980;-74
2021/12/10 15:14:01;;;;;;;25.15;13.30;;;;;;;;;;4390917;32;20057;-74
2021/12/10 15:16:32;;;;;;;22.95;11.68;;;;;;;;;;4392376;32;20088;-74
2021/12/10 15:19:25;;;;;;;33.78;13.55;;;;;;;;;;4392070;32;20030;-74
2021/12/10 15:21:58;;;;;;;31.80;15.68;;;;;;;;;;4389301;32;20432;-74
2021/12/10 15:24:28;;;;;;;23.70;11.77;;;;;;;;;;4391283;32;20062;-74
2021/12/10 15:30:31;;;;;;;20.08;11.93;;;;;;;;;;4330219;33;20052;-75
2021/12/10 15:42:40;;;;;;;;;;;;;;;;;;;;;
2021/12/10 15:45:10;;;;;;;27.80;14.17;;;;;;;;;;4243791;33;20172;-73
2021/12/10 15:47:35;;;;;;;22.13;13.93;;;;;;;;;;4296425;32;20036;-74
2021/12/10 15:50:00;;;;;;;;;;;;;;;;;;4377358;32;20375;-73
2021/12/10 15:52:25;;;;;;;30.70;15.18;;;;;;;;;;4376528;32;19938;-73
2021/12/10 15:57:37;;;;;;;31.00;18.08;;;;;;;;;;4391435;32;19933;-73
2021/12/10 16:00:25;;;;;;;28.65;17.85;;;;;;;;;;4391517;32;20061;-73
2021/12/10 16:03:27;;;;;;;34.13;17.90;;;;;;;;;;4362109;32;20065;-74
2021/12/10 16:06:06;;;;;;;;;;;;;;;;;;;;;
2021/12/10 16:08:42;;;;;;;32.85;17.00;;;;;;;;;;4391214;32;20434;-74
2021/12/10 16:11:09;;;;;;;28.92;17.05;;;;;;;;;;4391581;32;20451;-74
2021/12/10 16:13:37;;;;;;;29.45;16.40;;;;;;;;;;4391241;32;20396;-74
2021/12/10 16:16:20;;;;;;;32.97;18.30;;;;;;;;;;4377456;32;20023;-74
2021/12/10 16:18:55;;;;;;;29.55;18.23;;;;;;;;;;4389667;32;20034;-74
2021/12/10 16:21:33;;;;;;;31.75;17.92;;;;;;;;;;4377932;32;20341;-73
2021/12/10 16:27:27;;;;;;;29.92;17.70;;;;;;;;;;4359126;32;20066;-74
2021/12/10 16:29:59;;;;;;;34.40;16.30;;;;;;;;;;4368974;32;20042;-73
2021/12/10 16:32:29;;;;;;;34.13;18.25;;;;;;;;;;4391673;32;20417;-74
2021/12/10 16:34:58;;;;;;;29.95;17.08;;;;;;;;;;4390864;32;20066;-74
2021/12/10 16:37:24;;;;;;;35.95;16.73;;;;;;;;;;4387296;32;20038;-74
2021/12/10 16:39:53;;;;;;;33.72;17.67;;;;;;;;;;4373536;32;20046;-74
2021/12/10 16:42:19;;;;;;;35.75;18.42;;;;;;;;;;4374392;32;20103;-74
2021/12/10 16:44:44;;;;;;;;;;;;;;;;;;4375449;32;20447;-76
2021/12/10 16:47:17;;;;;;;38.00;20.10;;;;;;;;;;4374503;32;20383;-74
2021/12/10 16:52:31;;;;;;;47.75;21.23;;;;;;;;;;4372378;32;20478;-73
2021/12/10 16:54:59;;;;;;;35.72;21.80;;;;;;;;;;4374607;32;20034;-73
2021/12/10 16:57:57;;;;;;;37.55;20.23;;;;;;;;;;4375492;32;20065;-73
2021/12/10 17:00:22;;;;;;;;;;;;;;;;;;4358670;32;20047;-72
2021/12/10 17:02:53;;;;;;;36.35;22.27;;;;;;;;;;4366621;32;19950;-74
2021/12/10 17:05:26;;;;;;;47.03;24.08;;;;;;;;;;4363456;32;20561;-73
2021/12/10 17:10:58;;;;;;;34.65;20.60;;;;;;;;;;4353482;33;20433;-73
2021/12/10 17:13:28;;;;;;;43.03;23.05;;;;;;;;;;4389307;32;20043;-73
2021/12/10 17:15:54;;;;;;;39.97;21.45;;;;;;;;;;4391151;32;20039;-73
2021/12/10 17:18:19;;;;;;;;;;;;;;;;;;4390840;32;20475;-73
2021/12/10 17:20:51;;;;;;;37.15;22.15;;;;;;;;;;4384022;32;19980;-73
2021/12/10 17:23:18;;;;;;;40.60;23.48;;;;;;;;;;4375422;32;20065;-73
2021/12/10 17:28:37;;;;;;;33.05;20.95;;;;;;;;;;4358625;32;20044;-73
2021/12/10 17:31:07;;;;;;;36.17;21.70;;;;;;;;;;4375421;32;20104;-73
2021/12/10 17:33:35;;;;;;;35.83;20.70;;;;;;;;;;4376083;32;20081;-73
2021/12/10 17:36:04;;;;;;;38.15;22.23;;;;;;;;;;4375362;32;20077;-74
2021/12/10 17:38:29;;;;;;;39.03;22.95;;;;;;;;;;4376085;32;20486;-74
2021/12/10 17:40:55;;;;;;;;;;;;;;;;;;4375131;32;20055;-73
2021/12/10 17:44:25;;;;;;;36.15;22.08;;;;;;;;;;4375424;32;19950;-73
2021/12/10 17:49:25;;;;;;;42.97;22.52;;;;;;;;;;4375074;32;20400;-74
2021/12/10 17:52:03;;;;;;;38.28;22.65;;;;;;;;;;4376191;32;20057;-73
2021/12/10 18:00:35;;;;;;;41.25;23.40;;;;;;;;;;4378340;32;20050;-73
2021/12/10 18:03:22;;;;;;;49.78;24.35;;;;;;;;;;4377781;32;20077;-74
2021/12/10 18:08:51;;;;;;;48.13;22.80;;;;;;;;;;4378575;32;20108;-73
2021/12/10 18:11:16;;;;;;;;;;;;;;;;;;4377940;32;20100;-73
2021/12/10 18:16:55;;;;;;;41.33;24.70;;;;;;;;;;4377694;32;20029;-74
2021/12/10 18:22:31;;;;;;;40.90;25.02;;;;;;;;;;4378043;32;20026;-73
2021/12/10 18:25:11;;;;;;;;;;;;;;;;;;;;;
2021/12/10 18:27:46;;;;;;;49.13;27.65;;;;;;;;;;4377567;32;20031;-73
2021/12/10 18:33:23;;;;;;;38.25;25.77;;;;;;;;;;4345606;33;20028;-73
2021/12/10 18:36:10;;;;;;;47.33;26.05;;;;;;;;;;4376950;32;20081;-74
2021/12/10 18:39:08;;;;;;;43.28;25.92;;;;;;;;;;4377919;32;20015;-74
2021/12/10 18:41:36;;;;;;;43.08;26.67;;;;;;;;;;4377320;32;20079;-74
2021/12/10 18:46:53;;;;;;;51.53;29.95;;;;;;;;;;4378110;32;20051;-74
2021/12/10 18:49:46;;;;;;;;;;;;;;;;;;;;;
2021/12/10 18:58:26;;;;;;;54.75;30.70;;;;;;;;;;4316707;33;20445;-74
2021/12/10 19:00:57;;;;;;;60.10;32.78;;;;;;;;;;4335783;32;20060;-74
2021/12/10 19:03:28;;;;;;;52.35;30.55;;;;;;;;;;4377225;32;20093;-74
2021/12/10 19:06:04;;;;;;;64.87;34.28;;;;;;;;;;4362552;32;20058;-74
2021/12/10 19:08:35;;;;;;;63.67;34.17;;;;;;;;;;4363686;32;20102;-74
2021/12/10 19:11:03;;;;;;;62.42;34.33;;;;;;;;;;4377466;32;20023;-74
2021/12/10 19:13:54;;;;;;;76.15;34.47;;;;;;;;;;4376918;32;20070;-74
2021/12/10 19:19:37;;;;;;;58.45;33.10;;;;;;;;;;4377137;32;20061;-74
2021/12/10 19:22:10;;;;;;;72.78;34.45;;;;;;;;;;4376496;32;20074;-74
2021/12/10 19:24:52;;;;;;;66.97;35.38;;;;;;;;;;4377303;32;20428;-74
2021/12/10 19:30:39;;;;;;;73.07;36.67;;;;;;;;;;4362697;32;20090;-74
2021/12/10 19:33:07;;;;;;;79.18;40.12;;;;;;;;;;4376688;32;20031;-74
2021/12/10 19:35:35;;;;;;;78.75;39.70;;;;;;;;;;4392176;32;20023;-74
2021/12/10 19:38:04;;;;;;;78.18;39.53;;;;;;;;;;4390247;32;20038;-74
2021/12/10 19:40:32;;;;;;;74.90;38.80;;;;;;;;;;4391827;32;20018;-74